Dijon-Bourgogne Airport

Airport
ICAO code: 
LFSD
IATA Code: 
DIJ
Summary
ICAO Region: 
EUR
Territory: 
Location: 
, Bourgogne
Serving: 
Dijon
Elevation: 
726 ft
Coordinates: 
Aerial View: 
47° 16' 8.004" N, 5° 5' 24" E
Metar
Observation
LFSD 020330Z AUTO 21005KT 9999 OVC031 04/04 Q1004
Station
Dijon
Date/Time
2021-12-02 03:30:00
Wind direction
210°
Wind speed
05 kts
Lowest cloud amount
overcast
Temperature
4°C
Dew point
4°C
Humidity
100%
QNH
1004 hPa
Weather condition
n/a

Runways

Designator Length Width Surface Rops
2/20 1800 36 ASP No/No
18/36 2400 45 ASP No/No
Airport map: 
Aerial View: 

SKYbrary Partners:

Safety knowledge contributed by: